createdAt,value
2023-04-11T00:00:39.264Z,21.48
2023-04-11T00:03:07.424Z,19.77
2023-04-11T00:05:34.898Z,14.13
2023-04-11T00:08:02.369Z,18.05
2023-04-11T00:10:29.568Z,10.98
2023-04-11T00:12:57.525Z,14.52
2023-04-11T00:15:27.031Z,19.35
2023-04-11T00:17:57.965Z,19.27
2023-04-11T00:20:25.420Z,18.92
2023-04-11T00:22:54.294Z,15.93
2023-04-11T00:25:21.809Z,17.88
2023-04-11T00:27:49.025Z,13.57
2023-04-11T00:30:16.849Z,16.98
2023-04-11T00:32:46.736Z,21.80
2023-04-11T00:35:16.126Z,17.05
2023-04-11T00:37:44.468Z,16.75
2023-04-11T00:40:13.204Z,19.35
2023-04-11T00:42:40.992Z,12.18
2023-04-11T00:45:09.317Z,17.58
2023-04-11T00:47:36.938Z,19.00
2023-04-11T00:50:05.418Z,18.65
2023-04-11T00:52:34.682Z,15.88
2023-04-11T00:55:03.067Z,12.70
2023-04-11T00:57:30.950Z,12.38
2023-04-11T00:59:59.169Z,16.35
2023-04-11T01:02:26.866Z,16.27
2023-04-11T01:04:55.303Z,25.90
2023-04-11T01:07:24.716Z,27.55
2023-04-11T01:09:54.504Z,24.23
2023-04-11T01:12:22.688Z,24.13
2023-04-11T01:14:50.042Z,19.67
2023-04-11T01:17:17.837Z,20.02
2023-04-11T01:19:45.014Z,21.42
2023-04-11T01:22:15.342Z,14.93
2023-04-11T01:24:44.768Z,18.13
2023-04-11T01:27:12.071Z,14.93
2023-04-11T01:29:39.374Z,19.02
2023-04-11T01:32:06.996Z,17.88
2023-04-11T01:34:36.384Z,16.10
2023-04-11T01:37:04.282Z,20.00
2023-04-11T01:39:31.587Z,16.13
2023-04-11T01:42:02.937Z,14.52
2023-04-11T01:44:32.457Z,13.98
2023-04-11T01:47:00.290Z,17.90
2023-04-11T01:49:27.704Z,21.73
2023-04-11T01:51:55.006Z,19.50
2023-04-11T01:54:22.465Z,21.40
2023-04-11T01:56:50.274Z,22.83
2023-04-11T01:59:19.649Z,21.10
2023-04-11T02:01:47.080Z,14.40
2023-04-11T02:04:14.631Z,24.65
2023-04-11T02:06:42.119Z,18.60
2023-04-11T02:09:09.378Z,17.75
2023-04-11T02:11:36.829Z,18.27
2023-04-11T02:14:06.384Z,15.95
2023-04-11T02:16:56.264Z,17.50
2023-04-11T02:19:26.313Z,20.90
2023-04-11T02:21:53.588Z,15.82
2023-04-11T02:24:21.106Z,20.45
2023-04-11T02:26:48.395Z,17.67
2023-04-11T02:29:16.103Z,19.73
2023-04-11T02:31:43.487Z,15.68
2023-04-11T02:34:12.300Z,12.88
2023-04-11T02:36:39.610Z,20.35
2023-04-11T02:39:07.379Z,19.05
2023-04-11T02:41:34.610Z,16.55
2023-04-11T02:44:02.008Z,13.73
2023-04-11T02:46:29.482Z,17.17
2023-04-11T02:48:57.319Z,17.75
2023-04-11T02:51:27.283Z,21.65
2023-04-11T02:53:55.347Z,23.45
2023-04-11T02:56:22.877Z,17.80
2023-04-11T02:58:54.987Z,18.15
2023-04-11T03:01:25.629Z,20.10
2023-04-11T03:03:55.174Z,15.18
2023-04-11T03:06:28.296Z,18.67
2023-04-11T03:08:59.556Z,18.73
2023-04-11T03:11:27.110Z,17.00
2023-04-11T03:13:55.033Z,17.13
2023-04-11T03:16:22.681Z,19.00
2023-04-11T03:18:50.100Z,18.65
2023-04-11T03:21:17.528Z,24.70
2023-04-11T03:23:47.985Z,20.10
2023-04-11T03:26:16.248Z,14.98
2023-04-11T03:28:44.810Z,17.58
2023-04-11T03:31:16.026Z,18.52
2023-04-11T03:33:45.106Z,15.80
2023-04-11T03:36:12.530Z,24.27
2023-04-11T03:38:40.106Z,14.95
2023-04-11T03:41:09.750Z,20.55
2023-04-11T03:43:37.392Z,15.68
2023-04-11T03:46:05.904Z,26.10
2023-04-11T03:51:11.123Z,17.50
2023-04-11T03:53:45.559Z,13.65
2023-04-11T03:56:31.044Z,15.50
2023-04-11T03:58:58.852Z,17.63
2023-04-11T04:01:32.690Z,23.58
2023-04-11T04:04:05.182Z,19.95
2023-04-11T04:06:36.800Z,18.80
2023-04-11T04:09:05.081Z,23.42
2023-04-11T04:11:45.750Z,20.67
2023-04-11T04:14:13.747Z,20.98
2023-04-11T04:16:41.274Z,19.67
2023-04-11T04:19:08.825Z,18.58
2023-04-11T04:21:38.192Z,19.45
2023-04-11T04:24:06.399Z,21.27
2023-04-11T04:26:50.171Z,20.92
2023-04-11T04:29:39.604Z,21.42
2023-04-11T04:32:12.806Z,26.33
2023-04-11T04:34:55.319Z,23.92
2023-04-11T04:37:28.212Z,22.63
2023-04-11T04:40:13.296Z,19.95
2023-04-11T04:42:58.569Z,26.73
2023-04-11T04:48:04.587Z,15.20
2023-04-11T04:50:32.558Z,24.02
2023-04-11T04:52:59.808Z,24.23
2023-04-11T04:55:29.016Z,18.42
2023-04-11T04:57:57.948Z,31.10
2023-04-11T05:00:26.193Z,20.80
2023-04-11T05:05:30.257Z,20.80
2023-04-11T05:07:57.673Z,24.27
2023-04-11T05:10:25.203Z,21.75
2023-04-11T05:12:53.687Z,26.45
2023-04-11T05:15:23.606Z,25.27
2023-04-11T05:17:51.046Z,21.23
2023-04-11T05:20:18.842Z,30.75
2023-04-11T05:22:49.538Z,23.38
2023-04-11T05:25:18.333Z,22.20
2023-04-11T05:27:46.231Z,21.75
2023-04-11T05:30:14.337Z,17.33
2023-04-11T05:32:44.615Z,33.53
2023-04-11T05:35:12.101Z,31.00
2023-04-11T05:37:49.500Z,27.98
2023-04-11T05:40:16.899Z,27.17
2023-04-11T05:42:44.283Z,28.58
2023-04-11T05:45:12.060Z,25.00
2023-04-11T05:47:39.412Z,21.35
2023-04-11T05:50:10.765Z,22.95
2023-04-11T05:52:38.224Z,28.20
2023-04-11T05:55:07.495Z,22.15
2023-04-11T05:57:34.848Z,30.85
2023-04-11T06:00:02.387Z,29.08
2023-04-11T06:02:40.159Z,29.25
2023-04-11T06:05:11.980Z,25.20
2023-04-11T06:07:40.084Z,32.00
2023-04-11T06:10:08.616Z,23.85
2023-04-11T06:12:36.736Z,29.98
2023-04-11T06:15:04.937Z,33.95
2023-04-11T06:17:32.340Z,27.92
2023-04-11T06:19:59.622Z,27.75
2023-04-11T06:22:28.244Z,21.77
2023-04-11T06:24:55.782Z,18.42
2023-04-11T06:27:23.093Z,20.13
2023-04-11T06:29:50.647Z,13.15
2023-04-11T06:32:17.966Z,15.13
2023-04-11T06:34:45.574Z,11.85
2023-04-11T06:37:12.878Z,17.33
2023-04-11T06:39:41.758Z,19.33
2023-04-11T06:42:09.054Z,23.65
2023-04-11T06:44:36.366Z,22.58
2023-04-11T06:47:04.140Z,20.50
2023-04-11T06:49:31.592Z,19.15
2023-04-11T06:51:59.646Z,18.10
2023-04-11T06:54:26.924Z,23.73
2023-04-11T06:56:57.415Z,17.27
2023-04-11T06:59:24.971Z,19.65
2023-04-11T07:01:52.471Z,15.57
2023-04-11T07:04:20.107Z,19.08
2023-04-11T07:06:48.087Z,21.80
2023-04-11T07:09:15.532Z,18.10
2023-04-11T07:11:43.218Z,19.63
2023-04-11T07:14:12.023Z,17.70
2023-04-11T07:16:39.375Z,14.18
2023-04-11T07:19:06.799Z,13.32
2023-04-11T07:21:34.183Z,17.83
2023-04-11T07:24:01.675Z,18.58
2023-04-11T07:26:32.828Z,20.88
2023-04-11T07:29:00.966Z,26.98
2023-04-11T07:31:29.726Z,21.67
2023-04-11T07:33:57.168Z,17.23
2023-04-11T07:36:24.703Z,20.13
2023-04-11T07:38:52.452Z,13.93
2023-04-11T07:41:19.801Z,14.00
2023-04-11T07:43:47.209Z,23.63
2023-04-11T07:46:15.358Z,16.30
2023-04-11T07:48:44.484Z,15.18
2023-04-11T07:51:12.222Z,14.65
2023-04-11T07:53:39.606Z,17.30
2023-04-11T07:56:07.749Z,19.50
2023-04-11T07:58:35.081Z,17.40
2023-04-11T08:01:02.917Z,15.52
2023-04-11T08:03:30.518Z,16.00
2023-04-11T08:05:59.718Z,13.07
2023-04-11T08:08:26.946Z,13.32
2023-04-11T08:10:54.437Z,12.02
2023-04-11T08:13:21.756Z,16.45
2023-04-11T08:15:49.140Z,9.82
2023-04-11T08:18:16.635Z,13.43
2023-04-11T08:20:43.998Z,10.98
2023-04-11T08:23:12.611Z,13.18
2023-04-11T08:25:40.440Z,11.52
2023-04-11T08:28:10.107Z,11.40
2023-04-11T08:30:37.435Z,7.43
2023-04-11T08:33:04.837Z,12.35
2023-04-11T08:35:32.274Z,10.75
2023-04-11T08:37:59.550Z,17.70
2023-04-11T08:40:28.463Z,12.75
2023-04-11T08:43:00.261Z,7.60
2023-04-11T08:45:28.359Z,13.73
2023-04-11T08:47:55.981Z,13.98
2023-04-11T08:50:23.370Z,11.35
2023-04-11T08:52:53.188Z,9.25
2023-04-11T08:55:20.619Z,13.98
2023-04-11T08:57:49.345Z,8.18
2023-04-11T09:00:19.338Z,11.98
2023-04-11T09:02:58.157Z,8.48
2023-04-11T09:05:27.038Z,9.63
2023-04-11T09:07:55.197Z,10.88
2023-04-11T09:10:23.731Z,9.80
2023-04-11T09:12:53.239Z,10.85
2023-04-11T09:15:22.110Z,3.70
2023-04-11T09:17:50.183Z,14.18
2023-04-11T09:20:19.454Z,9.73
2023-04-11T09:22:50.837Z,12.82
2023-04-11T09:25:18.739Z,11.63
2023-04-11T09:27:46.208Z,10.70
2023-04-11T09:30:24.513Z,11.15
2023-04-11T09:32:56.216Z,11.38
2023-04-11T09:35:28.121Z,9.82
2023-04-11T09:37:56.882Z,11.57
2023-04-11T09:40:25.933Z,9.50
2023-04-11T09:43:00.962Z,11.27
2023-04-11T09:45:35.858Z,10.65
2023-04-11T09:48:08.719Z,13.27
2023-04-11T09:50:38.661Z,16.63
2023-04-11T09:53:06.755Z,10.00
2023-04-11T09:55:34.096Z,9.57
2023-04-11T09:58:01.588Z,6.82
2023-04-11T10:00:32.348Z,6.80
2023-04-11T10:03:00.019Z,9.68
2023-04-11T10:05:28.872Z,7.40
2023-04-11T10:08:03.413Z,8.95
2023-04-11T10:10:31.134Z,9.07
2023-04-11T10:12:58.695Z,7.57
2023-04-11T10:15:26.019Z,10.02
2023-04-11T10:18:10.315Z,14.77
2023-04-11T10:20:44.995Z,8.60
2023-04-11T10:23:13.231Z,9.98
2023-04-11T10:26:00.143Z,9.00
2023-04-11T10:28:32.776Z,6.25
2023-04-11T10:31:03.086Z,10.55
2023-04-11T10:33:32.425Z,8.43
2023-04-11T10:36:22.650Z,11.52
2023-04-11T10:38:51.626Z,9.48
2023-04-11T10:41:26.147Z,8.23
2023-04-11T10:44:13.892Z,9.63
2023-04-11T10:46:49.814Z,6.82
2023-04-11T10:49:36.719Z,8.75
2023-04-11T10:52:24.810Z,8.02
2023-04-11T10:54:52.914Z,7.63
2023-04-11T10:57:21.727Z,7.93
2023-04-11T11:00:09.602Z,7.68
2023-04-11T11:02:38.557Z,10.10
2023-04-11T11:05:21.337Z,7.57
2023-04-11T11:07:53.386Z,7.82
2023-04-11T11:10:41.143Z,8.02
2023-04-11T11:13:09.107Z,3.65
2023-04-11T11:15:40.293Z,4.78
2023-04-11T11:18:09.342Z,4.25
2023-04-11T11:20:38.279Z,6.70
2023-04-11T11:23:07.926Z,7.03
2023-04-11T11:25:35.747Z,7.35
2023-04-11T11:28:04.920Z,10.23
2023-04-11T11:30:32.846Z,5.35
2023-04-11T11:33:00.415Z,5.95
2023-04-11T11:35:29.070Z,5.38
2023-04-11T11:37:57.772Z,7.07
2023-04-11T11:40:25.047Z,7.10
2023-04-11T11:42:52.832Z,11.02
2023-04-11T11:45:21.816Z,6.10
2023-04-11T11:47:50.724Z,11.13
2023-04-11T11:50:26.713Z,9.88
2023-04-11T11:52:54.420Z,7.65
2023-04-11T11:55:33.329Z,5.38
2023-04-11T11:58:02.842Z,7.72
2023-04-11T12:00:35.393Z,7.47
2023-04-11T12:03:03.271Z,6.15
2023-04-11T12:05:32.646Z,7.50
2023-04-11T12:08:01.326Z,9.05
2023-04-11T12:10:38.226Z,6.30
2023-04-11T12:13:16.249Z,8.77
2023-04-11T12:15:46.731Z,9.90
2023-04-11T12:18:14.051Z,3.65
2023-04-11T12:20:41.662Z,7.35
2023-04-11T12:23:09.039Z,9.30
2023-04-11T12:25:38.029Z,7.35
2023-04-11T12:28:06.134Z,6.45
2023-04-11T12:30:33.506Z,10.27
2023-04-11T12:33:01.557Z,10.57
2023-04-11T12:35:29.254Z,6.68
2023-04-11T12:37:56.715Z,6.95
2023-04-11T12:40:24.409Z,6.95
2023-04-11T12:42:57.157Z,8.60
2023-04-11T12:45:25.174Z,7.75
2023-04-11T12:47:55.474Z,6.57
2023-04-11T12:50:24.026Z,7.93
2023-04-11T12:52:52.012Z,2.67
2023-04-11T12:55:19.596Z,6.50
2023-04-11T12:57:47.007Z,11.68
2023-04-11T13:00:17.548Z,7.22
2023-04-11T13:02:45.723Z,6.78
2023-04-11T13:05:18.182Z,9.07
2023-04-11T13:07:46.257Z,6.25
2023-04-11T13:10:14.483Z,7.45
2023-04-11T13:12:44.874Z,7.15
2023-04-11T13:15:13.697Z,5.60
2023-04-11T13:17:42.643Z,7.43
2023-04-11T13:20:11.329Z,5.05
2023-04-11T13:22:39.019Z,5.97
2023-04-11T13:25:07.432Z,4.35
2023-04-11T13:27:34.893Z,9.63
2023-04-11T13:30:04.910Z,5.88
2023-04-11T13:32:32.617Z,7.00
2023-04-11T13:35:01.448Z,11.05
2023-04-11T13:37:28.972Z,6.07
2023-04-11T13:39:59.005Z,10.27
2023-04-11T13:42:26.594Z,6.40
2023-04-11T13:44:54.389Z,9.95
2023-04-11T13:47:21.937Z,6.03
2023-04-11T13:49:49.217Z,8.20
2023-04-11T13:52:17.830Z,6.15
2023-04-11T13:54:45.114Z,4.43
2023-04-11T13:57:12.629Z,4.90
2023-04-11T13:59:42.305Z,9.05
2023-04-11T14:02:09.771Z,6.82
2023-04-11T14:04:37.100Z,5.30
2023-04-11T14:07:04.357Z,7.57
2023-04-11T14:09:33.021Z,7.15
2023-04-11T14:12:01.496Z,5.93
2023-04-11T14:14:28.851Z,5.38
2023-04-11T14:16:56.362Z,7.00
2023-04-11T14:19:25.000Z,5.57
2023-04-11T14:21:52.435Z,9.45
2023-04-11T14:24:22.301Z,7.22
2023-04-11T14:26:51.220Z,8.73
2023-04-11T14:29:19.850Z,6.07
2023-04-11T14:31:48.444Z,10.57
2023-04-11T14:34:16.638Z,7.30
2023-04-11T14:36:43.894Z,6.28
2023-04-11T14:39:11.179Z,7.72
2023-04-11T14:41:38.475Z,5.63
2023-04-11T14:44:07.311Z,6.53
2023-04-11T14:46:35.680Z,4.47
2023-04-11T14:49:03.645Z,6.55
2023-04-11T14:51:31.364Z,6.30
2023-04-11T14:53:59.985Z,4.80
2023-04-11T14:56:27.354Z,5.80
2023-04-11T14:58:54.955Z,8.70
2023-04-11T15:01:24.534Z,7.57
2023-04-11T15:03:52.223Z,9.15
2023-04-11T15:06:19.640Z,8.52
2023-04-11T15:08:48.479Z,6.38
2023-04-11T15:11:16.396Z,10.35
2023-04-11T15:13:47.978Z,5.53
2023-04-11T15:16:15.363Z,7.50
2023-04-11T15:18:44.240Z,7.38
2023-04-11T15:21:11.538Z,8.02
2023-04-11T15:23:39.052Z,7.43
2023-04-11T15:26:08.317Z,8.23
2023-04-11T15:28:37.303Z,5.50
2023-04-11T15:31:06.285Z,7.50
2023-04-11T15:33:34.172Z,7.35
2023-04-11T15:36:03.269Z,6.32
2023-04-11T15:38:30.834Z,4.78
2023-04-11T15:41:00.011Z,6.22
2023-04-11T15:43:27.675Z,9.57
2023-04-11T15:45:55.071Z,10.82
2023-04-11T15:48:25.582Z,8.10
2023-04-11T15:50:52.941Z,10.40
2023-04-11T15:53:21.891Z,11.15
2023-04-11T15:55:49.520Z,8.63
2023-04-11T15:58:17.095Z,13.40
2023-04-11T16:00:44.893Z,5.97
2023-04-11T16:03:12.420Z,10.20
2023-04-11T16:05:43.203Z,6.35
2023-04-11T16:08:10.804Z,8.77
2023-04-11T16:10:39.605Z,4.95
2023-04-11T16:13:06.981Z,8.70
2023-04-11T16:15:34.409Z,8.73
2023-04-11T16:18:02.014Z,10.30
2023-04-11T16:20:29.351Z,11.20
2023-04-11T16:22:56.783Z,10.63
2023-04-11T16:25:24.153Z,12.07
2023-04-11T16:27:53.108Z,13.35
2023-04-11T16:30:20.595Z,8.02
2023-04-11T16:32:47.905Z,8.45
2023-04-11T16:35:15.218Z,19.05
2023-04-11T16:37:42.613Z,9.25
2023-04-11T16:40:13.154Z,12.38
2023-04-11T16:42:40.589Z,10.18
2023-04-11T16:45:10.941Z,17.70
2023-04-11T16:47:41.181Z,13.38
2023-04-11T16:50:09.543Z,11.30
2023-04-11T16:52:36.891Z,12.43
2023-04-11T16:55:05.006Z,12.77
2023-04-11T16:57:33.499Z,9.70
2023-04-11T17:00:07.219Z,11.02
2023-04-11T17:02:36.129Z,12.98
2023-04-11T17:05:04.294Z,9.98
2023-04-11T17:07:33.405Z,13.82
2023-04-11T17:10:00.887Z,16.50
2023-04-11T17:12:28.408Z,9.27
2023-04-11T17:14:56.199Z,11.32
2023-04-11T17:17:23.629Z,8.18
2023-04-11T17:19:52.581Z,12.90
2023-04-11T17:22:20.167Z,14.85
2023-04-11T17:24:47.463Z,11.38
2023-04-11T17:27:14.916Z,18.42
2023-04-11T17:29:42.384Z,14.45
2023-04-11T17:32:09.582Z,12.95
2023-04-11T17:34:37.081Z,10.70
2023-04-11T17:37:06.642Z,12.63
2023-04-11T17:39:33.885Z,22.33
2023-04-11T17:42:01.560Z,16.42
2023-04-11T17:44:28.884Z,8.32
2023-04-11T17:46:56.661Z,15.27
2023-04-11T17:49:25.087Z,16.65
2023-04-11T17:51:59.049Z,13.73
2023-04-11T17:54:28.710Z,17.50
2023-04-11T17:56:56.505Z,16.75
2023-04-11T17:59:25.532Z,14.00
2023-04-11T18:01:56.218Z,12.73
2023-04-11T18:04:23.985Z,15.45
2023-04-11T18:06:51.489Z,13.20
2023-04-11T18:09:18.755Z,22.98
2023-04-11T18:11:47.455Z,16.38
2023-04-11T18:14:14.883Z,12.85
2023-04-11T18:16:42.145Z,15.32
2023-04-11T18:19:09.560Z,15.05
2023-04-11T18:21:38.725Z,16.67
2023-04-11T18:24:06.755Z,20.38
2023-04-11T18:26:35.550Z,17.90
2023-04-11T18:29:04.535Z,14.68
2023-04-11T18:31:35.201Z,20.13
2023-04-11T18:34:03.548Z,18.08
2023-04-11T18:36:31.024Z,14.82
2023-04-11T18:38:58.405Z,16.35
2023-04-11T18:41:26.113Z,16.17
2023-04-11T18:43:53.493Z,15.27
2023-04-11T18:46:22.575Z,16.55
2023-04-11T18:48:50.013Z,19.48
2023-04-11T18:51:17.545Z,16.17
2023-04-11T18:53:45.273Z,21.00
2023-04-11T18:56:12.505Z,22.02
2023-04-11T18:58:45.552Z,20.42
2023-04-11T19:01:16.921Z,20.17
2023-04-11T19:03:46.827Z,20.42
2023-04-11T19:06:14.325Z,22.25
2023-04-11T19:08:41.737Z,19.25
2023-04-11T19:11:09.067Z,18.38
2023-04-11T19:13:36.744Z,17.05
2023-04-11T19:16:04.510Z,16.40
2023-04-11T19:18:31.986Z,20.00
2023-04-11T19:21:01.452Z,15.18
2023-04-11T19:23:28.991Z,21.50
2023-04-11T19:25:56.827Z,16.60
2023-04-11T19:28:24.147Z,15.32
2023-04-11T19:30:51.489Z,18.90
2023-04-11T19:33:18.931Z,20.65
2023-04-11T19:35:46.606Z,16.20
2023-04-11T19:38:15.413Z,19.65
2023-04-11T19:40:42.796Z,15.98
2023-04-11T19:43:10.099Z,19.27
2023-04-11T19:45:37.430Z,21.05
2023-04-11T19:48:05.216Z,18.55
2023-04-11T19:50:32.736Z,30.30
2023-04-11T19:53:01.680Z,14.68
2023-04-11T19:55:33.240Z,16.83
2023-04-11T19:58:03.100Z,15.25
2023-04-11T20:00:36.295Z,20.52
2023-04-11T20:03:10.625Z,15.90
2023-04-11T20:05:39.251Z,27.52
2023-04-11T20:08:10.929Z,17.83
2023-04-11T20:10:41.971Z,19.23
2023-04-11T20:13:12.172Z,17.67
2023-04-11T20:15:41.864Z,16.00
2023-04-11T20:18:12.008Z,19.05
2023-04-11T20:20:39.317Z,20.27
2023-04-11T20:23:07.322Z,24.65
2023-04-11T20:25:35.132Z,18.42
2023-04-11T20:28:04.031Z,18.80
2023-04-11T20:30:32.520Z,21.38
2023-04-11T20:33:00.076Z,23.33
2023-04-11T20:35:27.717Z,19.23
2023-04-11T20:37:56.233Z,20.55
2023-04-11T20:40:24.012Z,20.25
2023-04-11T20:42:51.228Z,14.27
2023-04-11T20:45:25.894Z,16.02
2023-04-11T20:47:53.671Z,19.92
2023-04-11T20:50:21.652Z,22.50
2023-04-11T20:52:53.178Z,20.60
2023-04-11T20:55:21.119Z,16.77
2023-04-11T20:57:48.689Z,24.27
2023-04-11T21:00:17.609Z,23.10
2023-04-11T21:02:49.957Z,16.15
2023-04-11T21:05:21.472Z,15.32
2023-04-11T21:07:50.218Z,18.70
2023-04-11T21:10:19.340Z,18.40
2023-04-11T21:12:51.931Z,19.33
2023-04-11T21:15:20.135Z,19.80
2023-04-11T21:17:50.391Z,20.63
2023-04-11T21:20:18.640Z,18.50
2023-04-11T21:22:47.165Z,16.35
2023-04-11T21:25:15.915Z,20.67
2023-04-11T21:27:43.352Z,15.40
2023-04-11T21:30:11.577Z,14.07
2023-04-11T21:32:39.709Z,12.48
2023-04-11T21:35:09.944Z,13.32
2023-04-11T21:37:37.403Z,14.45
2023-04-11T21:40:05.681Z,20.27
2023-04-11T21:42:33.071Z,19.48
2023-04-11T21:45:00.543Z,19.92
2023-04-11T21:47:27.861Z,21.65
2023-04-11T21:49:55.061Z,18.85
2023-04-11T21:52:23.739Z,27.92
2023-04-11T21:54:51.098Z,16.80
2023-04-11T21:57:18.330Z,15.13
2023-04-11T21:59:46.859Z,20.92
2023-04-11T22:02:14.644Z,25.55
2023-04-11T22:04:55.794Z,18.55
2023-04-11T22:07:50.305Z,14.85
2023-04-11T22:10:23.344Z,19.88
2023-04-11T22:12:54.041Z,12.38
2023-04-11T22:15:21.680Z,17.70
2023-04-11T22:17:51.268Z,19.58
2023-04-11T22:20:20.074Z,13.77
2023-04-11T22:22:48.896Z,13.43
2023-04-11T22:25:18.414Z,14.10
2023-04-11T22:27:45.817Z,19.52
2023-04-11T22:30:14.869Z,17.80
2023-04-11T22:32:42.340Z,18.90
2023-04-11T22:35:11.106Z,15.90
2023-04-11T22:37:38.367Z,12.15
2023-04-11T22:40:11.565Z,28.80
2023-04-11T22:42:40.482Z,11.52
2023-04-11T22:45:08.771Z,13.57
2023-04-11T22:47:38.210Z,16.33
2023-04-11T22:50:06.270Z,28.02
2023-04-11T22:52:35.623Z,13.43
2023-04-11T22:55:04.761Z,22.92
2023-04-11T22:57:35.157Z,15.45
2023-04-11T23:00:04.756Z,21.90
2023-04-11T23:02:32.351Z,14.75
2023-04-11T23:05:02.276Z,14.38
2023-04-11T23:07:32.907Z,19.38
2023-04-11T23:10:01.227Z,17.83
2023-04-11T23:12:30.094Z,13.57
2023-04-11T23:15:02.421Z,18.67
2023-04-11T23:17:30.423Z,19.73
2023-04-11T23:19:59.460Z,20.27
2023-04-11T23:22:27.613Z,12.30
2023-04-11T23:24:55.035Z,16.20
2023-04-11T23:27:22.973Z,15.38
2023-04-11T23:29:50.736Z,17.98
2023-04-11T23:32:19.871Z,16.70
2023-04-11T23:34:47.151Z,15.90
2023-04-11T23:37:14.718Z,13.07
2023-04-11T23:39:42.239Z,18.00
2023-04-11T23:42:09.558Z,21.25
2023-04-11T23:44:36.770Z,14.93
2023-04-11T23:47:03.956Z,25.25
2023-04-11T23:49:32.689Z,21.83
2023-04-11T23:51:59.863Z,19.35
2023-04-11T23:54:30.451Z,15.45
2023-04-11T23:56:58.172Z,14.32
2023-04-11T23:59:25.475Z,15.48
